createdAt,value
2018-12-22T00:00:26.801Z,93.37
2018-12-22T00:02:57.614Z,93.60
2018-12-22T00:05:28.378Z,94.10
2018-12-22T00:07:59.270Z,93.29
2018-12-22T00:10:29.932Z,93.09
2018-12-22T00:13:03.535Z,92.27
2018-12-22T00:15:34.225Z,92.87
2018-12-22T00:18:05.164Z,92.68
2018-12-22T00:20:35.839Z,92.70
2018-12-22T00:23:06.532Z,92.64
2018-12-22T00:25:37.215Z,92.86
2018-12-22T00:28:07.898Z,92.85
2018-12-22T00:30:38.576Z,93.19
2018-12-22T00:33:09.257Z,92.84
2018-12-22T00:35:39.931Z,93.40
2018-12-22T00:38:12.079Z,93.21
2018-12-22T00:40:42.730Z,92.87
2018-12-22T00:43:13.415Z,93.21
2018-12-22T00:45:44.078Z,93.41
2018-12-22T00:48:14.772Z,93.14
2018-12-22T00:50:45.447Z,92.17
2018-12-22T00:53:16.171Z,92.31
2018-12-22T00:55:46.883Z,92.23
2018-12-22T00:58:17.590Z,91.69
2018-12-22T01:00:48.284Z,91.36
2018-12-22T01:03:19.023Z,91.36
2018-12-22T01:05:49.706Z,91.15
2018-12-22T01:08:20.500Z,90.22
2018-12-22T01:10:51.222Z,91.21
2018-12-22T01:13:22.956Z,91.31
2018-12-22T01:15:53.638Z,91.85
2018-12-22T01:18:24.354Z,91.54
2018-12-22T01:20:55.133Z,91.62
2018-12-22T01:23:25.834Z,91.75
2018-12-22T01:25:56.518Z,91.33
2018-12-22T01:28:27.238Z,91.17
2018-12-22T01:30:58.024Z,91.58
2018-12-22T01:33:28.741Z,90.48
2018-12-22T01:35:59.570Z,92.29
2018-12-22T01:38:30.269Z,92.05
2018-12-22T01:41:00.932Z,92.20
2018-12-22T01:43:31.677Z,92.64
2018-12-22T01:46:02.349Z,92.64
2018-12-22T01:48:33.033Z,92.17
2018-12-22T01:51:03.710Z,92.11
2018-12-22T01:53:34.396Z,92.30
2018-12-22T01:56:05.218Z,93.50
2018-12-22T01:58:35.893Z,93.28
2018-12-22T02:01:06.609Z,95.65
2018-12-22T02:03:38.327Z,95.23
2018-12-22T02:06:09.016Z,96.02
2018-12-22T02:08:39.797Z,96.20
2018-12-22T02:11:10.984Z,95.90
2018-12-22T02:13:41.673Z,96.25
2018-12-22T02:16:12.347Z,96.84
2018-12-22T02:18:43.037Z,96.64
2018-12-22T02:21:13.721Z,97.24
2018-12-22T02:23:44.404Z,97.14
2018-12-22T02:26:15.163Z,96.95
2018-12-22T02:28:45.915Z,96.75
2018-12-22T02:31:16.602Z,96.40
2018-12-22T02:33:47.277Z,96.25
2018-12-22T02:36:18.338Z,96.12
2018-12-22T02:38:49.023Z,95.63
2018-12-22T02:41:19.703Z,95.46
2018-12-22T02:43:50.388Z,95.83
2018-12-22T02:46:21.107Z,96.32
2018-12-22T02:48:51.797Z,96.50
2018-12-22T02:51:22.559Z,96.57
2018-12-22T02:53:53.245Z,95.43
2018-12-22T02:56:23.917Z,96.11
2018-12-22T02:58:54.851Z,94.97
2018-12-22T03:01:25.601Z,94.84
2018-12-22T03:03:56.272Z,95.33
2018-12-22T03:06:26.949Z,94.49
2018-12-22T03:08:57.708Z,95.41
2018-12-22T03:11:28.386Z,95.37
2018-12-22T03:14:00.117Z,95.67
2018-12-22T03:16:30.792Z,95.50
2018-12-22T03:19:01.581Z,95.50
2018-12-22T03:21:32.264Z,95.16
2018-12-22T03:24:02.940Z,95.22
2018-12-22T03:26:33.663Z,95.60
2018-12-22T03:29:04.513Z,96.32
2018-12-22T03:31:35.276Z,95.85
2018-12-22T03:34:06.056Z,96.70
2018-12-22T03:36:36.746Z,96.17
2018-12-22T03:39:09.366Z,96.09
2018-12-22T03:41:40.193Z,96.02
2018-12-22T03:44:10.955Z,96.56
2018-12-22T03:46:41.646Z,96.53
2018-12-22T03:49:12.345Z,97.27
2018-12-22T03:51:43.137Z,96.69
2018-12-22T03:54:13.824Z,97.27
2018-12-22T03:56:44.514Z,97.48
2018-12-22T03:59:24.465Z,97.72
2018-12-22T04:01:48.074Z,97.80
2018-12-22T04:04:18.782Z,97.60
2018-12-22T04:06:49.478Z,98.12
2018-12-22T04:09:20.184Z,97.75
2018-12-22T04:11:50.869Z,97.62
2018-12-22T04:14:21.564Z,97.56
2018-12-22T04:16:52.350Z,98.24
2018-12-22T04:19:23.134Z,98.14
2018-12-22T04:21:53.822Z,99.26
2018-12-22T04:24:24.536Z,98.90
2018-12-22T04:26:55.217Z,98.16
2018-12-22T04:29:33.634Z,98.78
2018-12-22T04:31:58.562Z,98.73
2018-12-22T04:34:29.267Z,98.81
2018-12-22T04:36:59.946Z,98.68
2018-12-22T04:39:30.670Z,98.70
2018-12-22T04:42:01.355Z,99.63
2018-12-22T04:44:32.410Z,99.56
2018-12-22T04:47:03.110Z,100.00
2018-12-22T04:49:34.764Z,99.65
2018-12-22T04:52:05.458Z,97.88
2018-12-22T04:54:36.165Z,97.76
2018-12-22T04:57:06.954Z,95.93
2018-12-22T04:59:42.932Z,96.37
2018-12-22T05:02:11.341Z,96.25
2018-12-22T05:04:42.035Z,97.27
2018-12-22T05:07:12.732Z,97.24
2018-12-22T05:09:43.441Z,97.09
2018-12-22T05:12:14.213Z,97.47
2018-12-22T05:14:44.922Z,97.93
2018-12-22T05:17:15.627Z,98.09
2018-12-22T05:19:46.352Z,99.00
2018-12-22T05:22:17.234Z,99.18
2018-12-22T05:24:47.930Z,99.72
2018-12-22T05:27:18.617Z,98.84
2018-12-22T05:29:52.010Z,98.81
2018-12-22T05:32:22.014Z,97.79
2018-12-22T05:34:52.732Z,98.70
2018-12-22T05:37:23.416Z,98.06
2018-12-22T05:39:54.121Z,97.38
2018-12-22T05:42:24.901Z,97.15
2018-12-22T05:44:55.592Z,97.78
2018-12-22T05:47:26.443Z,97.80
2018-12-22T05:49:57.210Z,98.98
2018-12-22T05:52:28.082Z,99.14
2018-12-22T05:54:58.929Z,99.15
2018-12-22T05:57:30.737Z,99.40
2018-12-22T06:00:01.612Z,99.25
2018-12-22T06:02:32.553Z,99.03
2018-12-22T06:05:03.445Z,99.86
2018-12-22T06:07:34.227Z,100.00
2018-12-22T06:10:05.766Z,99.89
2018-12-22T06:12:36.597Z,100.00
2018-12-22T06:15:07.769Z,99.62
2018-12-22T06:17:38.751Z,99.02
2018-12-22T06:20:11.628Z,98.57
2018-12-22T06:22:42.428Z,98.46
2018-12-22T06:25:13.277Z,98.65
2018-12-22T06:27:44.013Z,98.71
2018-12-22T06:30:14.771Z,98.58
2018-12-22T06:32:45.486Z,97.84
2018-12-22T06:35:16.204Z,98.32
2018-12-22T06:37:46.912Z,98.82
2018-12-22T06:40:17.813Z,98.73
2018-12-22T06:42:48.772Z,100.00
2018-12-22T06:45:19.547Z,100.00
2018-12-22T06:47:50.421Z,100.00
2018-12-22T06:50:21.408Z,100.00
2018-12-22T06:52:52.102Z,100.00
2018-12-22T06:55:22.980Z,100.00
2018-12-22T06:57:53.820Z,100.00
2018-12-22T07:00:24.559Z,100.00
2018-12-22T07:02:55.306Z,100.00
2018-12-22T07:05:26.108Z,100.00
2018-12-22T07:07:56.953Z,100.00
2018-12-22T07:10:27.687Z,100.00
2018-12-22T07:12:58.399Z,100.00
2018-12-22T07:15:30.332Z,100.00
2018-12-22T07:18:01.098Z,100.00
2018-12-22T07:20:31.881Z,99.75
2018-12-22T07:23:02.637Z,99.21
2018-12-22T07:25:33.336Z,99.03
2018-12-22T07:28:04.220Z,98.44
2018-12-22T07:30:35.049Z,98.54
2018-12-22T07:33:05.871Z,98.70
2018-12-22T07:35:36.820Z,98.99
2018-12-22T07:38:07.590Z,98.54
2018-12-22T07:40:38.466Z,98.77
2018-12-22T07:43:09.273Z,99.58
2018-12-22T07:45:40.152Z,98.43
2018-12-22T07:48:10.882Z,98.10
2018-12-22T07:50:42.151Z,97.64
2018-12-22T07:53:12.969Z,97.87
2018-12-22T07:55:43.941Z,98.49
2018-12-22T07:58:14.872Z,97.63
2018-12-22T08:00:45.610Z,98.08
2018-12-22T08:03:16.452Z,98.67
2018-12-22T08:05:47.169Z,98.93
2018-12-22T08:08:17.935Z,98.59
2018-12-22T08:10:48.776Z,99.20
2018-12-22T08:13:19.722Z,99.84
2018-12-22T08:15:50.545Z,100.00
2018-12-22T08:18:21.261Z,99.37
2018-12-22T08:20:52.075Z,99.45
2018-12-22T08:23:22.777Z,99.09
2018-12-22T08:25:53.677Z,98.48
2018-12-22T08:28:24.462Z,99.18
2018-12-22T08:30:55.234Z,97.97
2018-12-22T08:33:26.462Z,97.74
2018-12-22T08:35:57.350Z,98.41
2018-12-22T08:38:28.133Z,97.57
2018-12-22T08:40:59.013Z,96.72
2018-12-22T08:43:29.890Z,97.53
2018-12-22T08:46:00.713Z,96.87
2018-12-22T08:48:31.507Z,96.83
2018-12-22T08:51:02.801Z,95.57
2018-12-22T08:53:33.889Z,94.90
2018-12-22T08:56:04.981Z,95.49
2018-12-22T08:58:35.689Z,94.39
2018-12-22T09:01:06.624Z,94.93
2018-12-22T09:03:37.345Z,94.29
2018-12-22T09:06:08.134Z,94.34
2018-12-22T09:08:39.017Z,94.98
2018-12-22T09:11:11.533Z,95.47
2018-12-22T09:13:42.386Z,95.76
2018-12-22T09:16:13.275Z,95.06
2018-12-22T09:18:44.028Z,95.80
2018-12-22T09:21:14.838Z,95.71
2018-12-22T09:23:45.673Z,94.39
2018-12-22T09:26:16.661Z,94.13
2018-12-22T09:28:47.435Z,94.25
2018-12-22T09:31:18.177Z,94.04
2018-12-22T09:33:48.876Z,93.48
2018-12-22T09:36:19.638Z,91.82
2018-12-22T09:38:50.334Z,91.11
2018-12-22T09:41:21.264Z,91.79
2018-12-22T09:43:51.954Z,91.08
2018-12-22T09:46:22.792Z,91.76
2018-12-22T09:48:53.590Z,92.21
2018-12-22T09:51:24.356Z,92.57
2018-12-22T09:53:55.156Z,91.67
2018-12-22T09:56:26.673Z,90.59
2018-12-22T09:58:57.421Z,90.40
2018-12-22T10:01:28.289Z,90.55
2018-12-22T10:03:59.317Z,90.92
2018-12-22T10:06:30.089Z,89.88
2018-12-22T10:09:00.982Z,90.85
2018-12-22T10:11:31.754Z,90.77
2018-12-22T10:14:03.049Z,90.32
2018-12-22T10:16:33.777Z,90.97
2018-12-22T10:19:04.577Z,90.01
2018-12-22T10:21:35.289Z,88.16
2018-12-22T10:24:06.037Z,88.95
2018-12-22T10:26:36.861Z,88.21
2018-12-22T10:29:07.545Z,88.31
2018-12-22T10:31:38.378Z,87.49
2018-12-22T10:34:09.228Z,85.81
2018-12-22T10:36:40.837Z,87.29
2018-12-22T10:41:50.317Z,87.91
2018-12-22T10:44:21.101Z,88.36
2018-12-22T10:46:51.882Z,89.30
2018-12-22T10:49:22.705Z,88.40
2018-12-22T10:51:53.432Z,88.37
2018-12-22T10:54:24.132Z,88.10
2018-12-22T10:56:54.872Z,88.90
2018-12-22T10:59:25.634Z,88.80
2018-12-22T11:01:56.344Z,88.63
2018-12-22T11:04:27.033Z,87.99
2018-12-22T11:06:57.791Z,87.60
2018-12-22T11:09:28.464Z,87.76
2018-12-22T11:11:59.179Z,86.90
2018-12-22T11:14:30.088Z,85.64
2018-12-22T11:17:00.785Z,86.23
2018-12-22T11:19:31.491Z,87.00
2018-12-22T11:22:02.298Z,87.48
2018-12-22T11:24:34.123Z,87.42
2018-12-22T11:27:05.118Z,89.26
2018-12-22T11:29:35.806Z,89.26
2018-12-22T11:32:06.753Z,89.97
2018-12-22T11:34:37.446Z,90.13
2018-12-22T11:37:08.145Z,91.00
2018-12-22T11:39:39.986Z,90.81
2018-12-22T11:42:11.012Z,89.75
2018-12-22T11:44:41.693Z,89.76
2018-12-22T11:47:27.171Z,90.67
2018-12-22T11:49:57.866Z,89.74
2018-12-22T11:52:28.889Z,90.41
2018-12-22T11:54:59.784Z,90.60
2018-12-22T11:57:30.485Z,89.17
2018-12-22T12:00:01.183Z,88.70
2018-12-22T12:02:31.872Z,90.10
2018-12-22T12:05:02.646Z,89.68
2018-12-22T12:07:33.382Z,88.84
2018-12-22T12:10:04.436Z,89.44
2018-12-22T12:12:35.233Z,89.04
2018-12-22T12:15:12.503Z,89.66
2018-12-22T12:18:02.225Z,89.47
2018-12-22T12:20:32.929Z,90.98
2018-12-22T12:23:03.960Z,90.64
2018-12-22T12:25:34.660Z,91.18
2018-12-22T12:28:05.445Z,91.83
2018-12-22T12:30:36.136Z,91.18
2018-12-22T12:33:06.861Z,90.65
2018-12-22T12:35:37.566Z,91.01
2018-12-22T12:38:08.273Z,91.09
2018-12-22T12:40:38.952Z,91.46
2018-12-22T12:43:09.654Z,90.52
2018-12-22T12:45:40.342Z,89.86
2018-12-22T12:48:11.169Z,89.59
2018-12-22T12:50:43.270Z,89.88
2018-12-22T12:53:13.964Z,88.58
2018-12-22T12:55:44.795Z,88.69
2018-12-22T12:58:15.480Z,87.90
2018-12-22T13:00:46.163Z,88.83
2018-12-22T13:03:16.856Z,87.92
2018-12-22T13:05:47.530Z,87.18
2018-12-22T13:08:18.313Z,88.29
2018-12-22T13:10:49.103Z,88.49
2018-12-22T13:14:25.074Z,88.69
2018-12-22T13:16:55.802Z,89.14
2018-12-22T13:19:26.496Z,90.00
2018-12-22T13:21:57.173Z,91.34
2018-12-22T13:24:27.873Z,89.93
2018-12-22T13:26:58.561Z,91.03
2018-12-22T13:29:29.264Z,91.65
2018-12-22T13:31:59.950Z,90.50
2018-12-22T13:34:30.645Z,90.83
2018-12-22T13:37:01.664Z,90.78
2018-12-22T13:39:32.647Z,88.84
2018-12-22T13:42:03.541Z,88.32
2018-12-22T13:44:34.458Z,86.71
2018-12-22T13:47:05.424Z,86.90
2018-12-22T13:49:36.368Z,87.72
2018-12-22T13:52:07.218Z,86.88
2018-12-22T13:54:37.922Z,88.24
2018-12-22T13:57:08.592Z,88.40
2018-12-22T13:59:39.293Z,88.85
2018-12-22T14:02:18.120Z,88.64
2018-12-22T14:04:44.079Z,88.85
2018-12-22T14:07:14.756Z,90.12
2018-12-22T14:09:45.437Z,90.82
2018-12-22T14:12:16.121Z,90.31
2018-12-22T14:14:46.806Z,90.26
2018-12-22T14:17:25.866Z,90.98
2018-12-22T14:20:03.621Z,91.10
2018-12-22T14:22:35.552Z,90.38
2018-12-22T14:25:13.765Z,91.34
2018-12-22T14:27:44.436Z,90.92
2018-12-22T14:30:15.125Z,91.55
2018-12-22T14:32:45.845Z,92.46
2018-12-22T14:35:38.888Z,92.70
2018-12-22T14:38:10.648Z,94.04
2018-12-22T14:40:41.425Z,92.90
2018-12-22T14:43:12.117Z,92.78
2018-12-22T14:45:42.801Z,90.64
2018-12-22T14:48:13.570Z,92.04
2018-12-22T14:50:44.337Z,91.89
2018-12-22T14:53:15.016Z,91.63
2018-12-22T14:55:45.719Z,91.16
2018-12-22T14:58:24.194Z,91.43
2018-12-22T15:00:55.051Z,92.74
2018-12-22T15:03:25.817Z,92.97
2018-12-22T15:05:56.513Z,92.29
2018-12-22T15:08:27.280Z,93.94
2018-12-22T15:10:57.976Z,94.33
2018-12-22T15:13:28.680Z,95.29
2018-12-22T15:15:59.452Z,96.16
2018-12-22T15:18:30.225Z,96.28
2018-12-22T15:21:00.925Z,95.23
2018-12-22T15:23:31.689Z,94.36
2018-12-22T15:26:02.379Z,93.50
2018-12-22T15:28:33.060Z,94.13
2018-12-22T15:31:03.827Z,93.90
2018-12-22T15:33:34.516Z,95.44
2018-12-22T15:36:05.382Z,95.25
2018-12-22T15:38:36.061Z,93.45
2018-12-22T15:41:06.762Z,90.96
2018-12-22T15:43:37.466Z,90.17
2018-12-22T15:46:08.149Z,91.17
2018-12-22T15:48:38.921Z,91.42
2018-12-22T15:51:10.773Z,92.95
2018-12-22T15:53:41.460Z,93.07
2018-12-22T15:56:12.185Z,94.25
2018-12-22T15:58:42.877Z,95.34
2018-12-22T16:01:13.593Z,95.42
2018-12-22T16:03:44.298Z,95.76
2018-12-22T16:06:15.040Z,95.67
2018-12-22T16:08:45.734Z,94.39
2018-12-22T16:11:16.468Z,94.16
2018-12-22T16:13:47.157Z,93.73
2018-12-22T16:16:17.850Z,94.20
2018-12-22T16:18:48.528Z,94.07
2018-12-22T16:21:19.233Z,94.77
2018-12-22T16:23:49.927Z,95.23
2018-12-22T16:26:20.707Z,95.77
2018-12-22T16:29:10.045Z,95.29
2018-12-22T16:31:40.849Z,95.17
2018-12-22T16:34:11.623Z,95.81
2018-12-22T16:36:42.329Z,96.16
2018-12-22T16:39:13.028Z,96.18
2018-12-22T16:41:43.730Z,95.67
2018-12-22T16:44:18.006Z,96.65
2018-12-22T16:46:48.797Z,96.71
2018-12-22T16:49:19.483Z,96.33
2018-12-22T16:51:50.354Z,96.49
2018-12-22T16:54:21.081Z,96.47
2018-12-22T16:56:51.776Z,95.02
2018-12-22T16:59:22.528Z,95.69
2018-12-22T17:02:11.503Z,95.27
2018-12-22T17:04:42.666Z,95.13
2018-12-22T17:07:13.349Z,95.34
2018-12-22T17:09:44.063Z,95.86
2018-12-22T17:12:14.757Z,95.93
2018-12-22T17:14:45.460Z,95.44
2018-12-22T17:17:16.148Z,94.71
2018-12-22T17:19:46.837Z,95.00
2018-12-22T17:22:33.031Z,95.85
2018-12-22T17:25:18.312Z,95.72
2018-12-22T17:27:49.179Z,95.16
2018-12-22T17:30:19.860Z,95.80
2018-12-22T17:32:50.563Z,95.47
2018-12-22T17:35:21.365Z,95.76
2018-12-22T17:37:53.287Z,95.02
2018-12-22T17:40:23.978Z,94.98
2018-12-22T17:42:54.662Z,94.90
2018-12-22T17:45:25.357Z,95.64
2018-12-22T17:47:57.100Z,96.13
2018-12-22T17:50:27.805Z,95.10
2018-12-22T17:52:59.644Z,96.60
2018-12-22T17:55:30.554Z,96.35
2018-12-22T17:58:01.250Z,95.92
2018-12-22T18:00:31.930Z,95.65
2018-12-22T18:03:02.801Z,94.81
2018-12-22T18:05:33.473Z,95.58
2018-12-22T18:08:04.167Z,94.41
2018-12-22T18:10:34.946Z,94.72
2018-12-22T18:13:05.780Z,94.32
2018-12-22T18:15:36.533Z,93.49
2018-12-22T18:18:07.296Z,93.66
2018-12-22T18:20:38.017Z,93.84
2018-12-22T18:23:08.741Z,93.40
2018-12-22T18:25:39.542Z,93.59
2018-12-22T18:28:11.157Z,93.32
2018-12-22T18:30:41.928Z,92.83
2018-12-22T18:33:12.621Z,93.82
2018-12-22T18:35:43.314Z,93.58
2018-12-22T18:38:14.009Z,93.88
2018-12-22T18:40:44.844Z,94.27
2018-12-22T18:43:15.649Z,94.01
2018-12-22T18:45:46.333Z,95.06
2018-12-22T18:48:17.148Z,95.08
2018-12-22T18:50:47.830Z,94.74
2018-12-22T18:53:18.849Z,94.48
2018-12-22T18:55:49.530Z,94.85
2018-12-22T18:58:20.254Z,94.90
2018-12-22T19:00:51.028Z,94.62
2018-12-22T19:03:21.716Z,94.94
2018-12-22T19:05:52.397Z,95.94
2018-12-22T19:08:23.140Z,95.55
2018-12-22T19:10:59.842Z,95.01
2018-12-22T19:13:30.809Z,95.54
2018-12-22T19:16:01.551Z,96.20
2018-12-22T19:18:32.509Z,96.96
2018-12-22T19:21:03.218Z,97.15
2018-12-22T19:23:33.999Z,96.57
2018-12-22T19:26:04.781Z,95.87
2018-12-22T19:28:35.624Z,96.61
2018-12-22T19:31:06.448Z,95.66
2018-12-22T19:33:40.590Z,95.62
2018-12-22T19:36:11.301Z,95.43
2018-12-22T19:38:42.054Z,95.61
2018-12-22T19:41:12.821Z,95.41
2018-12-22T19:43:43.585Z,95.58
2018-12-22T19:46:14.323Z,95.46
2018-12-22T19:48:45.258Z,95.46
2018-12-22T19:51:16.048Z,96.95
2018-12-22T19:53:46.810Z,98.39
2018-12-22T19:56:17.543Z,97.65
2018-12-22T19:58:48.247Z,98.45
2018-12-22T20:01:18.984Z,98.05
2018-12-22T20:03:49.698Z,97.61
2018-12-22T20:06:20.461Z,96.90
2018-12-22T20:08:51.237Z,95.53
2018-12-22T20:11:22.013Z,95.79
2018-12-22T20:13:52.730Z,95.75
2018-12-22T20:16:23.479Z,95.10
2018-12-22T20:18:54.296Z,95.01
2018-12-22T20:21:24.992Z,95.26
2018-12-22T20:23:55.705Z,95.65
2018-12-22T20:26:26.512Z,94.85
2018-12-22T20:28:58.393Z,95.32
2018-12-22T20:31:29.135Z,96.07
2018-12-22T20:33:59.864Z,95.48
2018-12-22T20:36:30.613Z,95.34
2018-12-22T20:39:01.370Z,95.56
2018-12-22T20:41:33.837Z,95.31
2018-12-22T20:44:05.620Z,95.49
2018-12-22T20:46:36.339Z,95.74
2018-12-22T20:49:07.087Z,95.96
2018-12-22T20:51:37.794Z,95.58
2018-12-22T20:54:08.568Z,95.63
2018-12-22T20:56:39.300Z,95.44
2018-12-22T20:59:12.664Z,95.49
2018-12-22T21:01:43.470Z,96.37
2018-12-22T21:04:19.861Z,96.24
2018-12-22T21:06:46.993Z,95.80
2018-12-22T21:09:18.175Z,95.73
2018-12-22T21:11:48.894Z,96.00
2018-12-22T21:14:19.685Z,96.22
2018-12-22T21:16:50.385Z,95.69
2018-12-22T21:19:21.183Z,95.86
2018-12-22T21:22:22.755Z,95.65
2018-12-22T21:24:53.498Z,96.61
2018-12-22T21:27:24.209Z,97.10
2018-12-22T21:29:54.976Z,96.49
2018-12-22T21:32:25.698Z,97.11
2018-12-22T21:34:56.433Z,96.37
2018-12-22T21:37:27.150Z,96.40
2018-12-22T21:39:57.849Z,96.27
2018-12-22T21:42:28.645Z,95.51
2018-12-22T21:44:59.405Z,96.85
2018-12-22T21:47:30.109Z,97.10
2018-12-22T21:50:01.178Z,97.50
2018-12-22T21:52:31.880Z,97.23
2018-12-22T21:55:02.607Z,97.04
2018-12-22T21:57:33.330Z,96.52
2018-12-22T22:00:04.212Z,96.48
2018-12-22T22:02:34.938Z,96.52
2018-12-22T22:05:05.842Z,96.45
2018-12-22T22:07:36.556Z,96.56
2018-12-22T22:10:07.471Z,96.50
2018-12-22T22:12:38.189Z,95.92
2018-12-22T22:15:09.068Z,95.99
2018-12-22T22:17:39.827Z,96.25
2018-12-22T22:20:10.734Z,96.45
2018-12-22T22:22:41.462Z,95.43
2018-12-22T22:25:12.220Z,95.62
2018-12-22T22:27:43.077Z,94.90
2018-12-22T22:30:13.843Z,95.32
2018-12-22T22:32:44.551Z,95.17
2018-12-22T22:35:16.325Z,95.61
2018-12-22T22:37:47.040Z,95.21
2018-12-22T22:40:17.771Z,96.39
2018-12-22T22:42:48.487Z,95.60
2018-12-22T22:45:19.243Z,96.09
2018-12-22T22:47:49.988Z,95.78
2018-12-22T22:50:20.784Z,96.08
2018-12-22T22:52:51.517Z,95.70
2018-12-22T22:55:22.232Z,96.03
2018-12-22T22:57:52.991Z,95.56
2018-12-22T23:03:06.897Z,95.52
2018-12-22T23:05:37.625Z,95.30
2018-12-22T23:08:08.341Z,95.13
2018-12-22T23:10:39.149Z,96.06
2018-12-22T23:13:10.753Z,94.66
2018-12-22T23:15:41.504Z,95.16
2018-12-22T23:18:12.216Z,95.18
2018-12-22T23:20:42.937Z,95.27
2018-12-22T23:23:13.645Z,95.22
2018-12-22T23:25:44.388Z,94.52
2018-12-22T23:28:15.124Z,94.83
2018-12-22T23:30:52.225Z,94.83
2018-12-22T23:33:22.951Z,94.84
2018-12-22T23:35:53.701Z,93.83
2018-12-22T23:38:24.420Z,94.64
2018-12-22T23:40:55.179Z,94.57
2018-12-22T23:43:27.106Z,94.27
2018-12-22T23:45:57.829Z,94.44
2018-12-22T23:48:28.565Z,94.51
2018-12-22T23:50:59.406Z,93.62
2018-12-22T23:53:30.152Z,94.27
2018-12-22T23:56:00.955Z,94.15
2018-12-22T23:58:31.858Z,93.88
